TOURFACTS.DK  
Stats and Facts from Tour de France.

Tour de France 2019 starts in 354 days
  Riders   Stages   Teams   Summits   Yearly  


 
Search by year

After 2018 - Stage 9:
 15000 starters.
  5163 different riders.
  639 teams.
  2241 stages.
  456 restdays.
  441138.60 km.
  5662 abandonnees.


Top 3
GC
Christopher Froome86:20:55
Rigoberto Urán86:21:49
Romain Bardet86:23:15
Climb
Warren Barguil169 pt.
Primoz Roglic80 pt.
Thomas De Gendt64 pt.
Sprint
Michael Matthews359 pt.
André Greipel234 pt.
Edvald Boasson Hagen220 pt.
Youth
Simon Yates86:27:09
Louis Meintjes86:29:15
Emanuel Buchmann86:54:16
Facts from Tour de France 1964
  |   Stages.  |   Stage winners.  |   Days in yellow  |   Average speed.  |   Route.  |   Teams.  |   All riders.  |   Rookies.  |  

  |   Withdrawls.  |   GC.  |   Polka  |   Green  |   White  |   Summits. (In tour)  |   Miscellaneous.  |  

Stage 9 on June 30th. 1964
         Owning:    Joseph Groussard    
Pick a stage:  1 2 3a 3b 4 5 6 7 8 9 10a 10b 11 12 13 14 15 16 17 18 19 20 21 22a 22b
  BriançonMonaco | Dist: 239.00 km.
Cat: 1Col de VarsESPJulio Jiménez
15 points
 
Cat: 1Col de la BonetteESPFederico Bahamontes
15 points
 
Cat: 2Côte de LevensESPFederico Bahamontes
10 points
 

Average speed for all riders in stage:  30,728 km./hr.
    Place:Name:Team:Time:Km/h:
FRAJacques AnquetilFRASaint Raphael-Gitane-Campagnol..07:26:59  +  00:00:00=32,082 
ENGTom SimpsonFRAPeugeot-BP-Englebert07:26:59  +  00:00:00=32,082 
BELGilbert Desmet 1BELWiel´s-Groene Leeuw07:26:59  +  00:00:00=32,082 
4 FRAAndré FoucherFRAPelforth-Sauvage-Lejeune-Wolbe..07:26:59  +  00:00:00=32,082 
5 FRARaymond PoulidorFRAMercier-BP-Hutchinson07:26:59  +  00:00:00=32,082 
6 BELEddy PauwelsFRAMargnat-Paloma-Dunlop07:26:59  +  00:00:00=32,082 
7 ITAVittorio AdorniITASalvarani07:26:59  +  00:00:00=32,082 
8 FRAClaude MattioFRAMargnat-Paloma-Dunlop07:26:59  +  00:00:00=32,082 
9 ITABattista BabiniITASalvarani07:26:59  +  00:00:00=32,082 
10 FRAJoseph GroussardFRAPelforth-Sauvage-Lejeune-Wolbe..07:26:59  +  00:00:00=32,082 
11 GERKarl-Heinz KundeBELWiel´s-Groene Leeuw07:26:59  +  00:00:00=32,082 
12 FRAHenry DuezFRAPeugeot-BP-Englebert07:26:59  +  00:00:00=32,082 
13 FRAJean-Claude LebaubeFRASaint Raphael-Gitane-Campagnol..07:26:59  +  00:00:00=32,082 
14 FRAHenri AngladeFRAPelforth-Sauvage-Lejeune-Wolbe..07:26:59  +  00:00:00=32,082 
15 ITAArnaldo PambiancoITASalvarani07:26:59  +  00:00:00=32,082 
16 FRALouis RostollanFRASaint Raphael-Gitane-Campagnol..07:26:59  +  00:00:00=32,082 
17 ESPFederico BahamontesFRAMargnat-Paloma-Dunlop07:26:59  +  00:00:00=32,082 
18 ESPFernando ManzanequeESPFerrys07:26:59  +  00:00:00=32,082 
19 FRARobert PoulotFRAMercier-BP-Hutchinson07:26:59  +  00:00:00=32,082 
20 ESPEsteban MartinFRAMargnat-Paloma-Dunlop07:26:59  +  00:00:00=32,082 
21 GERHans JunkermannBELWiel´s-Groene Leeuw07:26:59  +  00:00:00=32,082 
22 FRAJoseph NovalesFRAMargnat-Paloma-Dunlop07:26:59  +  00:00:00=32,082 
23 GERRudi AltigFRASaint Raphael-Gitane-Campagnol..07:29:52  +  00:02:53=31,876 
24 FRAJean GaincheFRAMercier-BP-Hutchinson07:31:11  +  00:04:12=31,783 
25 BELArmand DesmetBELSolo-Superia07:31:11  +  00:04:12=31,783 
26 FRAJean StablinskiFRASaint Raphael-Gitane-Campagnol..07:31:11  +  00:04:12=31,783 
27 ESPJoaquin GaleraESPKas-Kaskol07:31:11  +  00:04:12=31,783 
28 FRAPaul VermeulenFRAMercier-BP-Hutchinson07:31:11  +  00:04:12=31,783 
29 NEDAlbertus GeldermansFRASaint Raphael-Gitane-Campagnol..07:31:11  +  00:04:12=31,783 
30 ESPJosé Pérez FrancésESPFerrys07:32:13  +  00:05:14=31,710 
31 ESPJulio JiménezESPKas-Kaskol07:32:13  +  00:05:14=31,710 
32 NEDJo De RooFRASaint Raphael-Gitane-Campagnol..07:35:39  +  00:08:40=31,472 
33 ITAItalo MazzacuratiITASalvarani07:35:39  +  00:08:40=31,472 
34 ESPRogelio HernandezESPFerrys07:35:39  +  00:08:40=31,472 
35 BELGuillaume Van TongerlooBELFlandria-Romeo07:35:39  +  00:08:40=31,472 
36 ESPSebastián ElorzaESPKas-Kaskol07:35:39  +  00:08:40=31,472 
37 ESPMiguel PachecoESPFerrys07:35:39  +  00:08:40=31,472 
38 FRAGuy EpaudFRAPelforth-Sauvage-Lejeune-Wolbe..07:37:34  +  00:10:35=31,340 
39 FRARaymond MastrottoFRAPeugeot-BP-Englebert07:41:22  +  00:14:23=31,082 
40 BELCamiel VynckeBELFlandria-Romeo07:41:22  +  00:14:23=31,082 
41 ENGBarry HobanFRAMercier-BP-Hutchinson07:42:44  +  00:15:45=30,990 
42 BELFrans BrandsBELFlandria-Romeo07:44:27  +  00:17:28=30,875 
43 BELEdward SelsBELSolo-Superia07:44:27  +  00:17:28=30,875 
44 ITAVito TacconeITASalvarani07:44:57  +  00:17:58=30,842 
45 FRAAndré DarrigadeFRAMargnat-Paloma-Dunlop07:44:57  +  00:17:58=30,842 
46 ESPJosé SeguFRAMargnat-Paloma-Dunlop07:44:57  +  00:17:58=30,842 
47 BELJozef TimmermanBELWiel´s-Groene Leeuw07:44:57  +  00:17:58=30,842 
48 BELVictor Van SchilFRAMercier-BP-Hutchinson07:44:57  +  00:17:58=30,842 
49 ENGMichael WrightBELWiel´s-Groene Leeuw07:44:57  +  00:17:58=30,842 
50 FRACamille Le MennFRAPeugeot-BP-Englebert07:44:57  +  00:17:58=30,842 
51 NEDHenk NijdamNLDTelevisier07:44:57  +  00:17:58=30,842 
52 ITAMario MinieriITASalvarani07:44:57  +  00:17:58=30,842 
53 FRARobert CazalaFRAMercier-BP-Hutchinson07:44:57  +  00:17:58=30,842 
54 FRAPierre EveraertFRASaint Raphael-Gitane-Campagnol..07:44:57  +  00:17:58=30,842 
55 ESPLuis OtañoESPFerrys07:44:57  +  00:17:58=30,842 
56 NEDPiet DamenNLDTelevisier07:44:57  +  00:17:58=30,842 
57 ESPFrancisco GabicESPKas-Kaskol07:44:57  +  00:17:58=30,842 
58 ITAAntonio FranchiITASalvarani07:44:57  +  00:17:58=30,842 
59 NEDHuub ZilverbergBELFlandria-Romeo07:44:57  +  00:17:58=30,842 
60 BELFerdinand BrackeFRAPeugeot-BP-Englebert07:45:37  +  00:18:38=30,798 
61 ITABruno FantinatoITASalvarani07:49:09  +  00:22:10=30,566 
62 ESPJuan UribezubiaESPKas-Kaskol07:51:39  +  00:24:40=30,404 
63 BELMichel Van AerdeBELSolo-Superia08:05:47  +  00:38:48=29,519 
64 BELBenoni BeheytBELWiel´s-Groene Leeuw08:05:47  +  00:38:48=29,519 
65 FRAJean GraczykFRAMargnat-Paloma-Dunlop08:05:47  +  00:38:48=29,519 
66 ESPAntonio BarrutiaESPKas-Kaskol08:05:47  +  00:38:48=29,519 
67 FRAJean-Pierre GenetFRAMercier-BP-Hutchinson08:05:47  +  00:38:48=29,519 
68 BELEdgard SorgeloosBELSolo-Superia08:05:47  +  00:38:48=29,519 
69 BELRik WoutersNLDTelevisier08:05:47  +  00:38:48=29,519 
70 BELArthur DecabooterBELSolo-Superia08:05:47  +  00:38:48=29,519 
71 FRAFrancois HamonFRAPeugeot-BP-Englebert08:05:47  +  00:38:48=29,519 
72 ESPAntonio BertranESPFerrys08:05:47  +  00:38:48=29,519 
73 BELBernard Van De KerckhoveBELSolo-Superia08:05:47  +  00:38:48=29,519 
74 BELWilly DerbovenBELSolo-Superia08:05:47  +  00:38:48=29,519 
75 FRAJean MilesiFRAMargnat-Paloma-Dunlop08:05:47  +  00:38:48=29,519 
76 ESPJosé BernardezESPFerrys08:05:47  +  00:38:48=29,519 
77 NEDPiet van EstNLDTelevisier08:05:47  +  00:38:48=29,519 
78 FRAGeorges GroussardFRAPelforth-Sauvage-Lejeune-Wolbe..08:05:47  +  00:38:48=29,519 
79 FRAJean-Claude LefebvreFRAPelforth-Sauvage-Lejeune-Wolbe..08:05:47  +  00:38:48=29,519 
80 ESPMiguel MartinESPKas-Kaskol08:05:47  +  00:38:48=29,519 
81 ENGVic DensonBELSolo-Superia08:05:47  +  00:38:48=29,519 
82 BELGilbert Desmet 2BELWiel´s-Groene Leeuw08:05:47  +  00:38:48=29,519 
83 ALGHubert FerrerFRAPelforth-Sauvage-Lejeune-Wolbe..08:05:47  +  00:38:48=29,519 
84 NEDJan JanssenFRAPelforth-Sauvage-Lejeune-Wolbe..08:05:47  +  00:38:48=29,519 
85 IRLSeamus ElliottFRASaint Raphael-Gitane-Campagnol..08:05:47  +  00:38:48=29,519 
86 FRAAnatole NovakFRASaint Raphael-Gitane-Campagnol..08:05:47  +  00:38:48=29,519 
87 BELFrans AerenhoutsFRAMercier-BP-Hutchinson08:05:47  +  00:38:48=29,519 
88 FRAEdouard DelbergheFRAPelforth-Sauvage-Lejeune-Wolbe..08:05:47  +  00:38:48=29,519 
89 FRAAndré ZimmermannFRASaint Raphael-Gitane-Campagnol..08:05:47  +  00:38:48=29,519 
90 BELJean-Baptiste ClaesBELWiel´s-Groene Leeuw08:05:47  +  00:38:48=29,519 
91 NEDCees HaastNLDTelevisier08:05:47  +  00:38:48=29,519 
92 ESPSalvador HonrubiaESPFerrys08:05:47  +  00:38:48=29,519 
93 FRAGuy SeyveFRAPeugeot-BP-Englebert08:05:47  +  00:38:48=29,519 
94 BELJos HoevenaersBELFlandria-Romeo08:05:47  +  00:38:48=29,519 
95 BELWilly MontyFRAPelforth-Sauvage-Lejeune-Wolbe..08:05:47  +  00:38:48=29,519 
96 FRAJacques GestraudFRAMargnat-Paloma-Dunlop08:05:47  +  00:38:48=29,519 
97 NEDJo de HaanNLDTelevisier08:05:47  +  00:38:48=29,519 
98 BELWilly BocklantBELFlandria-Romeo08:05:47  +  00:38:48=29,519 

Withdrawls: 6
 
Rider
Team
Reason
18  BELFrans MelckenbeeckFRAMercier-BP-HutchinsonDid not finish
62  BELYvo MolenaersBELWiel´s-Groene LeeuwDid not finish
65  BELFrans VerbeeckBELWiel´s-Groene LeeuwDid not finish
83  BELJoseph PlanckaertBELFlandria-RomeoDid not start
110  ESPEusebio VelezESPKas-KaskolDid not finish
129  NEDLeo van DongenNLDTelevisierExceeded time limit

Todays birthdays.

1876  Frédéric Rigaux
1896  Federico Gay
1901  Paul Delbart
1944  Jean-Pierre Ducasse
1948  Marc Lievens
1961  Willem Wijnant
1964  Miguel Indurain
1965  Gianni Faresin
1973  Stefano Garzelli
1982  André Greipel
1984  Alan Marangoni




Visits: